Time;durP1;ratioP1;P1;durP2;ratioP2;P2;SDS_P1;SDS_P2;PMS_P1;PMS_P2;Temp;Humidity;BMP_temperature;BMP_pressure;BME280_temperature;BME280_humidity;BME280_pressure;Samples;Min_cycle;Max_cycle;Signal;HPM_P1;HPM_P2
2024/01/30 00:00:20;;;;;;;14.20;10.13;;;;;;;4.71;87.78;99429.19;4254314;27;20204;-81
2024/01/30 00:02:23;;;;;;;14.35;10.18;;;;;;;4.70;87.04;99436.97;4253289;27;20236;-81
2024/01/30 00:04:26;;;;;;;12.18;9.75;;;;;;;4.68;87.64;99426.69;4231717;27;20200;-82
2024/01/30 00:06:29;;;;;;;13.98;10.45;;;;;;;4.62;87.34;99420.81;4216883;27;20627;-81
2024/01/30 00:08:33;;;;;;;14.48;9.88;;;;;;;4.59;87.63;99417.47;4253619;27;20208;-82
2024/01/30 00:10:37;;;;;;;13.40;9.70;;;;;;;4.57;87.95;99420.09;4238415;27;20637;-81
2024/01/30 00:12:40;;;;;;;12.82;9.85;;;;;;;4.54;87.30;99420.16;4239842;27;20209;-82
2024/01/30 00:14:44;;;;;;;15.05;10.25;;;;;;;4.37;85.52;99413.66;4221850;27;20211;-82
2024/01/30 00:16:47;;;;;;;17.05;11.10;;;;;;;4.24;86.05;99414.84;4255424;27;20237;-82
2024/01/30 00:18:50;;;;;;;14.65;11.50;;;;;;;4.18;85.94;99414.09;4229421;27;20213;-81
2024/01/30 00:20:53;;;;;;;15.52;10.70;;;;;;;4.14;86.37;99418.50;4237017;27;20307;-81
2024/01/30 00:22:56;;;;;;;14.48;11.30;;;;;;;4.15;87.64;99420.19;4233909;27;20200;-81
2024/01/30 00:25:01;;;;;;;17.83;10.90;;;;;;;4.15;87.02;99414.16;4235364;27;20289;-81
2024/01/30 00:27:03;;;;;;;16.30;11.80;;;;;;;4.20;86.42;99417.53;4241019;27;20242;-81
2024/01/30 00:29:06;;;;;;;14.00;10.35;;;;;;;4.15;87.25;99419.34;4243220;27;20200;-82
2024/01/30 00:31:12;;;;;;;14.55;10.90;;;;;;;4.16;87.69;99418.47;4256478;27;20305;-81
2024/01/30 00:33:16;;;;;;;14.25;10.45;;;;;;;4.19;87.71;99415.81;4255420;27;20197;-82
2024/01/30 00:35:19;;;;;;;14.80;10.43;;;;;;;4.21;87.88;99415.75;4236059;27;20211;-82
2024/01/30 00:37:23;;;;;;;17.30;10.63;;;;;;;4.24;89.09;99413.09;4239186;27;20200;-81
2024/01/30 00:39:25;;;;;;;18.70;10.60;;;;;;;4.25;88.99;99413.94;4251241;27;20203;-81
2024/01/30 00:41:29;;;;;;;16.23;11.25;;;;;;;4.26;88.62;99419.06;4255598;27;20469;-81
2024/01/30 00:43:33;;;;;;;14.75;10.75;;;;;;;4.28;88.34;99417.31;4233506;27;20231;-81
2024/01/30 00:45:35;;;;;;;13.13;9.43;;;;;;;4.28;89.24;99426.78;4234841;27;20203;-81
2024/01/30 00:47:38;;;;;;;12.70;9.63;;;;;;;4.26;88.52;99421.66;4252753;27;20235;-82
2024/01/30 00:49:41;;;;;;;14.52;10.25;;;;;;;4.26;88.18;99424.22;4233693;27;20596;-82
2024/01/30 00:51:45;;;;;;;13.85;9.57;;;;;;;4.26;88.80;99423.38;4242986;27;20700;-81
2024/01/30 00:53:48;;;;;;;12.45;9.70;;;;;;;4.26;88.88;99426.81;4237338;27;20871;-81
2024/01/30 00:55:51;;;;;;;13.90;9.65;;;;;;;4.26;88.78;99425.97;4237912;27;20192;-82
2024/01/30 00:57:56;;;;;;;14.98;10.18;;;;;;;4.24;89.29;99425.16;4249995;27;20249;-81
2024/01/30 00:59:59;;;;;;;11.60;9.25;;;;;;;4.22;88.64;99421.75;4249576;27;20302;-81
2024/01/30 01:02:02;;;;;;;14.48;10.15;;;;;;;4.22;89.16;99426.91;4256493;27;20611;-82
2024/01/30 01:04:05;;;;;;;15.80;9.45;;;;;;;4.23;89.51;99434.63;4211932;28;20225;-82
2024/01/30 01:06:08;;;;;;;12.57;9.75;;;;;;;4.21;89.26;99423.50;4250540;27;20210;-82
2024/01/30 01:08:11;;;;;;;17.10;9.75;;;;;;;4.20;88.10;99428.69;4232867;27;20633;-81
2024/01/30 01:10:13;;;;;;;13.55;9.57;;;;;;;4.19;88.71;99429.56;4234415;27;20199;-81
2024/01/30 01:12:17;;;;;;;11.57;8.93;;;;;;;4.18;88.91;99425.31;4218084;28;20209;-82
2024/01/30 01:14:21;;;;;;;14.98;9.95;;;;;;;4.16;89.20;99432.22;4251408;27;20241;-81
2024/01/30 01:16:27;;;;;;;13.50;9.35;;;;;;;4.12;88.68;99425.44;4252171;27;20670;-81
2024/01/30 01:18:30;;;;;;;12.05;9.27;;;;;;;4.13;88.43;99432.28;4248924;27;20210;-81
2024/01/30 01:20:33;;;;;;;14.05;9.40;;;;;;;4.11;89.13;99428.88;4241244;27;20330;-81
2024/01/30 01:22:38;;;;;;;13.55;9.00;;;;;;;4.11;88.38;99428.88;4251196;27;20362;-81
2024/01/30 01:24:41;;;;;;;13.68;9.48;;;;;;;4.11;88.30;99428.88;4236608;27;20203;-81
2024/01/30 01:26:44;;;;;;;16.75;9.50;;;;;;;4.11;89.37;99430.63;4250790;27;20610;-81
2024/01/30 01:28:47;;;;;;;13.10;9.40;;;;;;;4.11;88.72;99428.03;4228264;27;20251;-81
2024/01/30 01:30:52;;;;;;;17.30;9.40;;;;;;;4.10;88.32;99427.19;4252238;27;20226;-81
2024/01/30 01:32:56;;;;;;;14.43;9.13;;;;;;;4.13;89.59;99428.84;4239940;27;20314;-81
2024/01/30 01:34:59;;;;;;;12.57;9.68;;;;;;;4.12;88.63;99429.72;4250366;27;20212;-82
2024/01/30 01:37:02;;;;;;;14.57;10.10;;;;;;;4.10;88.69;99428.91;4234010;27;20226;-81
2024/01/30 01:39:06;;;;;;;14.52;10.20;;;;;;;4.11;89.49;99428.03;4234915;27;20197;-81
2024/01/30 01:41:09;;;;;;;13.10;9.88;;;;;;;4.12;89.24;99427.16;4237046;27;20286;-81
2024/01/30 01:43:12;;;;;;;11.60;8.50;;;;;;;4.09;89.66;99424.63;4238525;27;20214;-81
2024/01/30 01:45:14;;;;;;;15.40;9.63;;;;;;;4.09;88.11;99428.06;4259265;27;20187;-81
2024/01/30 01:47:18;;;;;;;12.88;8.95;;;;;;;4.09;88.61;99424.63;4223358;27;20231;-81
2024/01/30 01:49:22;;;;;;;17.45;10.77;;;;;;;4.07;88.51;99419.50;4260215;27;20297;-82
2024/01/30 01:51:30;;;;;;;11.10;8.80;;;;;;;4.08;88.72;99430.69;4242831;27;20215;-81
2024/01/30 01:53:34;;;;;;;13.77;9.30;;;;;;;4.11;89.45;99428.03;4262199;27;20218;-81
2024/01/30 01:55:38;;;;;;;15.93;10.65;;;;;;;4.10;89.67;99416.00;4239524;27;20709;-80
2024/01/30 01:57:41;;;;;;;11.77;9.20;;;;;;;4.12;88.90;99424.56;4257594;27;20289;-80
2024/01/30 01:59:45;;;;;;;13.02;9.88;;;;;;;4.11;88.53;99423.72;4262274;27;20592;-81
2024/01/30 02:01:49;;;;;;;10.65;8.65;;;;;;;4.09;88.54;99424.63;4258968;27;20240;-81
2024/01/30 02:03:54;;;;;;;14.52;9.50;;;;;;;4.06;89.10;99415.25;4260433;27;20234;-80
2024/01/30 02:05:57;;;;;;;14.50;9.85;;;;;;;4.07;89.06;99426.41;4261723;27;20199;-81
2024/01/30 02:08:00;;;;;;;12.32;8.75;;;;;;;4.05;88.84;99423.00;4261750;27;20205;-84
2024/01/30 02:10:04;;;;;;;13.00;10.25;;;;;;;4.05;88.72;99425.59;4242453;27;20238;-83
2024/01/30 02:12:08;;;;;;;13.05;9.75;;;;;;;4.04;88.70;99431.63;4226467;28;20236;-83
2024/01/30 02:14:11;;;;;;;10.88;8.70;;;;;;;4.03;89.02;99427.34;4238439;27;20253;-83
2024/01/30 02:16:14;;;;;;;12.55;9.13;;;;;;;4.03;88.35;99424.75;4223545;27;20786;-83
2024/01/30 02:18:20;;;;;;;12.95;9.05;;;;;;;4.03;88.42;99424.75;4253921;27;20260;-83
2024/01/30 02:20:40;;;;;;;12.43;8.70;;;;;;;4.00;89.38;99423.09;4240254;27;20294;-83
2024/01/30 02:22:45;;;;;;;13.50;9.40;;;;;;;4.02;89.37;99423.06;4223939;27;20224;-83
2024/01/30 02:24:47;;;;;;;11.50;8.85;;;;;;;4.00;88.58;99419.66;4238875;27;20212;-83
2024/01/30 02:26:50;;;;;;;11.45;8.38;;;;;;;3.99;89.89;99423.97;4253064;27;20210;-83
2024/01/30 02:28:53;;;;;;;12.85;9.00;;;;;;;3.98;89.78;99421.44;4232716;27;20661;-83
2024/01/30 02:30:56;;;;;;;11.38;8.15;;;;;;;3.97;89.19;99420.59;4242992;27;20677;-83
2024/01/30 02:33:00;;;;;;;12.50;8.50;;;;;;;3.95;90.07;99421.50;4223499;27;20203;-83
2024/01/30 02:35:03;;;;;;;13.95;9.60;;;;;;;3.93;89.42;99424.09;4237593;27;20214;-83
2024/01/30 02:37:06;;;;;;;14.30;8.30;;;;;;;3.94;88.66;99420.66;4254217;27;20558;-83
2024/01/30 02:39:11;;;;;;;14.27;8.77;;;;;;;3.94;89.12;99415.50;4239831;27;20629;-83
2024/01/30 02:41:14;;;;;;;11.80;8.32;;;;;;;3.97;88.56;99418.00;4259493;27;20239;-83
2024/01/30 02:43:17;;;;;;;10.48;8.35;;;;;;;3.95;88.78;99417.19;4253182;27;20198;-83
2024/01/30 02:45:20;;;;;;;11.45;8.27;;;;;;;3.95;88.94;99418.91;4252928;27;20239;-83
2024/01/30 02:47:23;;;;;;;11.85;8.57;;;;;;;3.93;89.60;99424.09;4258183;27;20237;-83
2024/01/30 02:49:26;;;;;;;9.70;7.53;;;;;;;3.94;88.24;99424.94;4239818;27;20215;-83
2024/01/30 02:51:29;;;;;;;13.23;8.57;;;;;;;3.95;89.37;99418.91;4259086;27;20214;-84
2024/01/30 02:53:33;;;;;;;11.88;7.95;;;;;;;3.92;88.81;99416.41;4219374;27;20208;-83
2024/01/30 02:55:37;;;;;;;11.05;8.50;;;;;;;3.92;87.89;99417.25;4234220;27;20673;-83
2024/01/30 02:57:40;;;;;;;9.45;8.02;;;;;;;3.92;88.77;99417.25;4257182;27;20203;-83
2024/01/30 02:59:43;;;;;;;9.98;7.82;;;;;;;3.94;89.28;99422.38;4241422;27;20208;-83
2024/01/30 03:01:46;;;;;;;10.02;7.82;;;;;;;3.91;88.63;99415.56;4240988;27;20203;-83
2024/01/30 03:03:49;;;;;;;13.85;8.60;;;;;;;3.89;88.47;99411.31;4253114;27;20194;-83
2024/01/30 03:05:52;;;;;;;10.40;8.07;;;;;;;3.88;88.32;99405.31;4229344;27;20598;-84
2024/01/30 03:07:55;;;;;;;12.30;8.10;;;;;;;3.86;89.23;99407.09;4235228;27;20199;-83
2024/01/30 03:09:58;;;;;;;12.00;9.35;;;;;;;3.84;88.69;99407.97;4239090;27;20215;-84
2024/01/30 03:12:02;;;;;;;13.25;9.20;;;;;;;3.84;88.61;99407.97;4255022;27;20695;-83
2024/01/30 03:14:05;;;;;;;13.68;8.68;;;;;;;3.83;88.01;99407.16;4239503;27;20289;-83
2024/01/30 03:16:09;;;;;;;12.95;8.52;;;;;;;3.85;87.98;99407.94;4235766;27;20307;-83
2024/01/30 03:18:12;;;;;;;13.38;9.13;;;;;;;3.84;87.54;99408.81;4236624;27;20222;-83
2024/01/30 03:20:16;;;;;;;12.93;8.40;;;;;;;3.82;88.12;99404.59;4239321;27;20203;-83
2024/01/30 03:22:19;;;;;;;13.25;9.32;;;;;;;3.83;87.83;99411.44;4233621;27;20223;-83
2024/01/30 03:24:22;;;;;;;13.02;9.50;;;;;;;3.81;87.87;99413.22;4223578;27;20208;-83
2024/01/30 03:26:25;;;;;;;13.35;9.75;;;;;;;3.80;88.14;99408.91;4226459;27;20249;-82
2024/01/30 03:28:30;;;;;;;12.80;9.02;;;;;;;3.80;88.79;99420.09;4223413;27;20263;-82
2024/01/30 03:30:33;;;;;;;11.35;8.38;;;;;;;3.80;88.46;99419.22;4253285;27;20316;-82
2024/01/30 03:32:36;;;;;;;12.65;8.93;;;;;;;3.81;88.53;99423.53;4251782;27;20229;-83
2024/01/30 03:34:40;;;;;;;12.65;8.82;;;;;;;3.80;88.58;99421.81;4236845;27;20787;-83
2024/01/30 03:36:43;;;;;;;11.35;8.38;;;;;;;3.79;88.45;99418.41;4225394;27;20208;-83
2024/01/30 03:38:46;;;;;;;14.65;8.48;;;;;;;3.79;88.36;99423.56;4230783;27;20204;-83
2024/01/30 03:40:49;;;;;;;11.23;8.02;;;;;;;3.78;89.73;99429.59;4239781;27;20214;-83
2024/01/30 03:42:52;;;;;;;10.32;7.80;;;;;;;3.81;88.92;99428.69;4261235;27;20290;-84
2024/01/30 03:44:57;;;;;;;10.13;7.82;;;;;;;3.81;89.29;99418.38;4224004;27;20200;-83
2024/01/30 03:47:00;;;;;;;11.68;8.20;;;;;;;3.80;88.74;99427.84;4235712;27;20237;-83
2024/01/30 03:49:03;;;;;;;10.48;7.53;;;;;;;3.81;89.95;99420.94;4257218;27;20848;-83
2024/01/30 03:51:07;;;;;;;12.32;7.70;;;;;;;3.80;89.32;99426.97;4257591;27;20640;-83
2024/01/30 03:53:10;;;;;;;9.60;7.47;;;;;;;3.81;88.84;99432.09;4222794;28;20233;-83
2024/01/30 03:55:13;;;;;;;11.50;8.30;;;;;;;3.79;89.60;99420.97;4242036;27;20195;-84
2024/01/30 03:57:17;;;;;;;11.50;7.78;;;;;;;3.79;89.00;99426.13;4254711;27;20291;-83
2024/01/30 03:59:23;;;;;;;12.15;8.02;;;;;;;3.80;89.60;99427.84;4241471;27;20295;-83
2024/01/30 04:01:28;;;;;;;9.80;7.10;;;;;;;3.77;89.76;99427.03;4251031;27;20200;-83
2024/01/30 04:03:31;;;;;;;11.52;8.20;;;;;;;3.77;89.41;99424.44;4257048;27;20202;-84
2024/01/30 04:05:35;;;;;;;9.10;7.30;;;;;;;3.76;88.82;99427.94;4240030;27;20211;-83
2024/01/30 04:07:38;;;;;;;12.10;7.78;;;;;;;3.75;88.58;99428.81;4257425;27;20245;-82
2024/01/30 04:09:41;;;;;;;15.45;9.13;;;;;;;3.74;88.70;99430.53;4224461;27;20315;-83
2024/01/30 04:11:44;;;;;;;12.10;8.80;;;;;;;3.72;88.76;99429.69;4234874;27;20244;-83
2024/01/30 04:13:48;;;;;;;10.75;7.95;;;;;;;3.69;89.14;99431.50;4256801;27;20282;-83
2024/01/30 04:15:50;;;;;;;10.98;8.13;;;;;;;3.67;89.39;99428.13;4232686;27;20208;-82
2024/01/30 04:17:54;;;;;;;10.30;7.95;;;;;;;3.66;88.92;99433.31;4238339;27;20760;-83
2024/01/30 04:19:57;;;;;;;11.30;8.68;;;;;;;3.62;88.13;99437.66;4235920;27;20204;-83
2024/01/30 04:22:01;;;;;;;11.98;9.18;;;;;;;3.61;88.93;99420.50;4236361;27;20310;-83
2024/01/30 04:24:05;;;;;;;10.93;8.05;;;;;;;3.59;88.26;99427.41;4238509;27;20195;-83
2024/01/30 04:26:08;;;;;;;12.57;9.27;;;;;;;3.55;88.85;99425.78;4231285;27;20214;-82
2024/01/30 04:28:11;;;;;;;11.68;8.80;;;;;;;3.51;88.74;99421.53;4222352;27;20409;-83
2024/01/30 04:30:15;;;;;;;11.07;8.57;;;;;;;3.53;89.09;99424.09;4250466;27;20199;-83
2024/01/30 04:32:18;;;;;;;11.05;8.55;;;;;;;3.53;88.07;99426.66;4255384;27;20206;-83
2024/01/30 04:34:22;;;;;;;12.02;8.70;;;;;;;3.53;88.89;99419.78;4231657;27;20737;-82
2024/01/30 04:36:25;;;;;;;11.65;7.97;;;;;;;3.52;88.48;99420.69;4252941;27;20235;-83
2024/01/30 04:38:28;;;;;;;13.65;8.70;;;;;;;3.51;89.37;99418.13;4222166;27;20212;-84
2024/01/30 04:40:31;;;;;;;13.40;8.10;;;;;;;3.51;88.29;99423.28;4240222;27;20293;-83
2024/01/30 04:42:35;;;;;;;12.85;8.95;;;;;;;3.50;88.92;99429.31;4238126;27;20227;-82
2024/01/30 04:44:38;;;;;;;14.45;8.73;;;;;;;3.44;88.28;99427.72;4235267;27;20231;-83
2024/01/30 04:46:41;;;;;;;10.25;8.30;;;;;;;3.46;88.27;99422.53;4254401;27;20690;-83
2024/01/30 04:48:44;;;;;;;12.20;8.40;;;;;;;3.46;88.94;99431.09;4235384;27;20827;-83
2024/01/30 04:50:49;;;;;;;10.70;8.23;;;;;;;3.46;88.75;99425.94;4228596;27;20211;-83
2024/01/30 04:52:52;;;;;;;12.07;9.10;;;;;;;3.47;88.95;99417.34;4232682;27;20225;-83
2024/01/30 04:54:54;;;;;;;12.82;9.35;;;;;;;3.49;89.49;99415.59;4231949;27;20201;-83
2024/01/30 04:56:57;;;;;;;10.63;8.40;;;;;;;3.48;88.88;99425.91;4219299;27;20205;-83
2024/01/30 04:59:00;;;;;;;11.05;8.73;;;;;;;3.49;88.93;99417.31;4218947;27;21145;-83
2024/01/30 05:01:03;;;;;;;11.82;8.65;;;;;;;3.46;88.70;99410.47;4223653;28;20209;-82
2024/01/30 05:03:07;;;;;;;11.60;8.10;;;;;;;3.42;88.60;99418.31;4240025;27;20294;-83
2024/01/30 05:05:10;;;;;;;12.30;8.90;;;;;;;3.40;88.90;99418.31;4252503;27;20195;-84
2024/01/30 05:07:15;;;;;;;12.07;8.60;;;;;;;3.36;88.23;99414.09;4231844;27;20200;-83
2024/01/30 05:09:18;;;;;;;11.43;8.63;;;;;;;3.37;88.11;99415.81;4252108;27;20280;-83
2024/01/30 05:11:22;;;;;;;11.63;9.25;;;;;;;3.38;87.89;99417.53;4250648;27;20218;-83
2024/01/30 05:13:25;;;;;;;11.32;8.60;;;;;;;3.40;87.99;99413.19;4254320;27;20728;-82
2024/01/30 05:15:28;;;;;;;14.35;9.00;;;;;;;3.42;88.28;99420.88;4237226;27;20211;-84
2024/01/30 05:17:31;;;;;;;13.68;9.10;;;;;;;3.40;88.73;99420.91;4221154;27;20219;-85
2024/01/30 05:19:34;;;;;;;14.27;11.95;;;;;;;3.40;88.27;99431.22;4234206;27;20207;-85
2024/01/30 05:21:38;;;;;;;12.95;9.70;;;;;;;3.39;89.18;99426.94;4240242;27;20287;-85
2024/01/30 05:23:42;;;;;;;12.77;9.13;;;;;;;3.41;88.72;99427.78;4222747;28;20614;-85
2024/01/30 05:25:45;;;;;;;13.18;10.32;;;;;;;3.39;88.90;99434.66;4251796;27;20207;-85
2024/01/30 05:27:48;;;;;;;10.93;8.15;;;;;;;3.38;89.26;99435.56;4256780;27;20294;-85
2024/01/30 05:29:54;;;;;;;11.88;8.63;;;;;;;3.35;89.08;99434.75;4254730;27;21040;-85
2024/01/30 05:31:57;;;;;;;16.40;9.63;;;;;;;3.33;88.26;99429.63;4235146;27;20196;-85
2024/01/30 05:34:03;;;;;;;10.65;8.40;;;;;;;3.33;88.11;99432.19;4249506;27;20306;-85
2024/01/30 05:36:07;;;;;;;10.30;8.32;;;;;;;3.33;88.94;99429.63;4237287;27;20204;-85
2024/01/30 05:38:10;;;;;;;10.80;8.80;;;;;;;3.33;88.47;99434.78;4253841;27;20302;-85
2024/01/30 05:40:15;;;;;;;14.73;9.10;;;;;;;3.35;88.38;99432.16;4233341;27;20217;-85
2024/01/30 05:42:18;;;;;;;23.58;14.35;;;;;;;3.38;88.42;99440.72;4235250;27;20671;-85
2024/01/30 05:44:21;;;;;;;18.02;11.90;;;;;;;3.34;88.66;99435.66;4249340;27;20282;-85
2024/01/30 05:46:25;;;;;;;12.20;9.70;;;;;;;3.35;89.40;99433.03;4231486;27;20295;-85
2024/01/30 05:48:27;;;;;;;13.63;9.55;;;;;;;3.35;89.51;99433.03;4254223;27;20688;-85
2024/01/30 05:50:30;;;;;;;14.65;9.93;;;;;;;3.36;89.14;99431.31;4239827;27;20206;-85
2024/01/30 05:52:33;;;;;;;13.35;9.90;;;;;;;3.37;88.67;99440.75;4240347;27;20209;-84
2024/01/30 05:54:37;;;;;;;11.18;8.57;;;;;;;3.39;88.37;99444.13;4231167;27;20223;-85
2024/01/30 05:56:40;;;;;;;12.30;9.27;;;;;;;3.39;88.87;99442.41;4235694;27;20203;-85
2024/01/30 05:58:43;;;;;;;10.95;8.32;;;;;;;3.41;88.50;99447.53;4231575;27;20724;-84
2024/01/30 06:00:46;;;;;;;10.85;8.75;;;;;;;3.41;88.61;99453.56;4251906;27;20208;-85
2024/01/30 06:02:49;;;;;;;9.77;7.55;;;;;;;3.43;88.91;99450.94;4252346;27;20203;-85
2024/01/30 06:04:52;;;;;;;9.65;7.30;;;;;;;3.42;88.73;99450.06;4229357;27;20200;-85
2024/01/30 06:06:55;;;;;;;10.35;7.70;;;;;;;3.43;89.08;99453.53;4216540;28;20234;-85
2024/01/30 06:08:59;;;;;;;10.65;8.00;;;;;;;3.42;89.46;99450.06;4249405;27;20234;-84
2024/01/30 06:11:02;;;;;;;10.10;7.55;;;;;;;3.42;88.73;99444.06;4254612;27;20299;-85
2024/01/30 06:13:05;;;;;;;10.45;7.55;;;;;;;3.42;89.54;99451.81;4239611;27;20250;-85
2024/01/30 06:15:09;;;;;;;9.80;7.57;;;;;;;3.42;89.00;99450.06;4231205;27;20293;-85
2024/01/30 06:17:13;;;;;;;8.63;6.70;;;;;;;3.41;89.75;99443.25;4254886;27;20229;-85
2024/01/30 06:19:17;;;;;;;8.25;6.63;;;;;;;3.42;88.82;99450.06;4235325;27;20207;-85
2024/01/30 06:21:20;;;;;;;10.45;7.20;;;;;;;3.42;89.19;99437.19;4248557;27;20309;-85
2024/01/30 06:23:26;;;;;;;11.55;7.65;;;;;;;3.45;88.82;99444.03;4234120;27;20204;-85
2024/01/30 06:25:29;;;;;;;9.55;6.85;;;;;;;3.45;89.50;99447.44;4250008;27;20677;-83
2024/01/30 06:27:32;;;;;;;14.05;8.48;;;;;;;3.46;89.50;99446.56;4239108;27;20208;-83
2024/01/30 06:29:37;;;;;;;13.05;7.75;;;;;;;3.49;88.81;99450.84;4251247;27;20203;-83
2024/01/30 06:31:42;;;;;;;11.93;8.30;;;;;;;3.48;89.34;99449.97;4236338;27;20200;-83
2024/01/30 06:33:47;;;;;;;8.63;7.38;;;;;;;3.47;89.32;99440.56;4221120;27;20232;-83
2024/01/30 06:35:50;;;;;;;10.10;7.90;;;;;;;3.48;89.62;99446.53;4258290;27;20289;-83
2024/01/30 06:37:53;;;;;;;10.73;8.93;;;;;;;3.46;88.93;99456.06;4239964;27;20204;-83
2024/01/30 06:39:56;;;;;;;11.73;8.38;;;;;;;3.46;89.21;99448.31;4253935;27;20219;-83
2024/01/30 06:41:58;;;;;;;12.68;8.30;;;;;;;3.46;89.30;99453.47;4222372;27;20214;-82
2024/01/30 06:44:03;;;;;;;12.20;8.60;;;;;;;3.47;89.55;99447.41;4258082;27;20194;-83
2024/01/30 06:46:07;;;;;;;11.20;8.77;;;;;;;3.48;89.85;99454.28;4249317;27;20206;-82
2024/01/30 06:48:11;;;;;;;12.20;7.70;;;;;;;3.49;89.52;99453.41;4235349;27;20205;-82
2024/01/30 06:50:14;;;;;;;14.45;8.32;;;;;;;3.47;89.18;99453.44;4236253;27;20219;-82
2024/01/30 06:52:19;;;;;;;11.40;8.07;;;;;;;3.47;88.75;99456.03;4238975;27;22321;-82
2024/01/30 06:54:22;;;;;;;10.70;7.72;;;;;;;3.45;89.57;99452.59;4255400;27;20225;-83
2024/01/30 06:56:25;;;;;;;13.02;8.00;;;;;;;3.47;88.53;99461.19;4238954;27;20215;-83
2024/01/30 06:58:28;;;;;;;10.35;8.35;;;;;;;3.48;89.34;99460.28;4257109;27;20232;-82
2024/01/30 07:00:32;;;;;;;12.23;8.05;;;;;;;3.48;89.63;99457.69;4232248;27;20208;-82
2024/01/30 07:02:36;;;;;;;12.23;8.23;;;;;;;3.50;89.37;99457.66;4254711;27;20302;-82
2024/01/30 07:04:40;;;;;;;9.40;7.60;;;;;;;3.52;89.00;99459.34;4255543;27;20211;-82
2024/01/30 07:06:49;;;;;;;11.25;7.93;;;;;;;3.53;89.80;99458.44;4258860;27;20247;-83
2024/01/30 07:08:53;;;;;;;11.95;7.97;;;;;;;3.56;89.83;99473.88;4241969;27;20264;-83
2024/01/30 07:10:56;;;;;;;10.93;7.70;;;;;;;3.58;89.22;99459.25;4251711;27;20211;-83
2024/01/30 07:13:04;;;;;;;10.45;7.43;;;;;;;3.59;89.74;99468.66;4258139;27;20211;-83
2024/01/30 07:15:08;;;;;;;13.65;8.93;;;;;;;3.62;88.72;99460.84;4232711;27;20246;-83
2024/01/30 07:17:12;;;;;;;11.13;7.63;;;;;;;3.69;89.29;99469.34;4236658;27;20655;-83
2024/01/30 07:19:16;;;;;;;9.88;7.82;;;;;;;3.74;89.47;99476.97;4235553;27;20589;-83
2024/01/30 07:21:21;;;;;;;11.40;7.70;;;;;;;3.85;89.03;99471.59;4235227;27;20251;-83
2024/01/30 07:23:24;;;;;;;12.43;7.85;;;;;;;3.93;88.79;99480.03;4251558;27;20671;-83
2024/01/30 07:25:29;;;;;;;11.45;7.50;;;;;;;4.01;88.75;99478.97;4257151;27;20199;-82
2024/01/30 07:27:31;;;;;;;11.98;7.53;;;;;;;4.06;87.91;99477.19;4223602;27;20205;-86
2024/01/30 07:29:35;;;;;;;12.07;8.10;;;;;;;4.06;88.14;99478.88;4213429;27;20291;-83
2024/01/30 07:31:38;;;;;;;10.43;8.20;;;;;;;4.12;88.62;99486.50;4252523;27;20257;-83
2024/01/30 07:33:41;;;;;;;11.80;8.30;;;;;;;4.12;88.32;99482.22;4226022;27;20238;-84
2024/01/30 07:35:46;;;;;;;12.73;9.25;;;;;;;4.12;88.36;99476.19;4255880;27;20225;-84
2024/01/30 07:37:49;;;;;;;13.60;9.05;;;;;;;4.11;88.51;99477.09;4236253;27;20305;-85
2024/01/30 07:39:52;;;;;;;12.88;9.10;;;;;;;4.11;88.71;99482.25;4255654;27;20208;-85
2024/01/30 07:41:55;;;;;;;15.43;9.23;;;;;;;4.13;88.10;99488.22;4258994;27;20200;-84
2024/01/30 07:43:58;;;;;;;17.08;10.02;;;;;;;4.13;88.25;99483.06;4239923;27;20288;-84
2024/01/30 07:46:02;;;;;;;12.93;9.23;;;;;;;4.14;89.25;99490.75;4254312;27;20194;-85
2024/01/30 07:48:07;;;;;;;11.38;8.63;;;;;;;4.15;88.34;99489.91;4240982;27;20211;-85
2024/01/30 07:50:11;;;;;;;13.35;9.05;;;;;;;4.18;88.92;99486.38;4248179;27;20284;-84
2024/01/30 07:52:15;;;;;;;17.15;9.57;;;;;;;4.20;88.02;99494.06;4245478;27;20199;-84
2024/01/30 07:54:19;;;;;;;12.35;9.38;;;;;;;4.23;88.74;99490.56;4217568;27;20296;-84
2024/01/30 07:56:22;;;;;;;12.82;9.65;;;;;;;4.26;89.17;99488.75;4257018;27;20217;-84
2024/01/30 07:58:27;;;;;;;13.02;8.38;;;;;;;4.27;89.00;99493.06;4235703;27;20213;-83
2024/01/30 08:00:30;;;;;;;13.30;9.18;;;;;;;4.27;89.32;99487.91;4229158;27;20212;-84
2024/01/30 08:02:32;;;;;;;11.10;8.70;;;;;;;4.29;89.41;99487.88;4251078;27;20206;-84
2024/01/30 08:04:35;;;;;;;11.88;7.85;;;;;;;4.30;88.81;99490.41;4254834;27;20244;-85
2024/01/30 08:06:37;;;;;;;16.27;10.80;;;;;;;4.34;88.57;99489.44;4233276;27;20208;-84
2024/01/30 08:08:46;;;;;;;16.65;11.55;;;;;;;4.38;88.22;99491.09;4218014;27;20627;-84
2024/01/30 08:10:49;;;;;;;18.30;13.30;;;;;;;4.43;89.13;99493.56;4248975;27;20271;-84
2024/01/30 08:12:52;;;;;;;18.08;12.27;;;;;;;4.53;89.07;99493.34;4260480;27;20204;-84
2024/01/30 08:14:56;;;;;;;16.02;11.27;;;;;;;4.61;88.45;99496.59;4253698;27;20242;-84
2024/01/30 08:16:59;;;;;;;15.57;11.00;;;;;;;4.68;88.59;99493.00;4234515;27;20314;-84
2024/01/30 08:19:02;;;;;;;16.27;10.82;;;;;;;4.74;88.76;99487.69;4240355;27;20299;-84
2024/01/30 08:21:12;;;;;;;14.88;10.63;;;;;;;4.81;88.52;99487.53;4243582;27;20207;-85
2024/01/30 08:23:16;;;;;;;17.70;9.63;;;;;;;4.89;87.33;99495.94;4240465;27;20222;-85
2024/01/30 08:25:22;;;;;;;13.18;10.00;;;;;;;4.97;87.95;99491.41;4251974;27;20201;-85
2024/01/30 08:27:24;;;;;;;11.93;10.13;;;;;;;5.06;87.62;99498.13;4239202;27;20717;-84
2024/01/30 08:29:27;;;;;;;12.30;9.30;;;;;;;5.14;87.51;99507.38;4250870;27;20202;-84
2024/01/30 08:31:30;;;;;;;13.45;9.82;;;;;;;5.20;86.64;99504.63;4254574;27;20211;-84
2024/01/30 08:33:34;;;;;;;16.92;10.25;;;;;;;5.29;87.08;99512.16;4250588;27;20208;-84
2024/01/30 08:35:38;;;;;;;16.63;11.55;;;;;;;5.38;87.60;99511.94;4234327;27;20224;-84
2024/01/30 08:37:41;;;;;;;13.32;10.40;;;;;;;5.44;86.71;99501.44;4233506;27;20244;-84
2024/01/30 08:39:44;;;;;;;17.25;11.45;;;;;;;5.50;86.59;99504.72;4251028;27;20212;-84
2024/01/30 08:41:49;;;;;;;30.70;16.45;;;;;;;5.58;86.23;99512.28;4232059;27;20268;-84
2024/01/30 08:43:53;;;;;;;34.35;16.52;;;;;;;5.65;86.01;99512.06;4251824;27;20226;-84
2024/01/30 08:45:57;;;;;;;24.63;13.70;;;;;;;5.77;86.09;99509.19;4221697;27;20296;-84
2024/01/30 08:48:00;;;;;;;16.77;11.60;;;;;;;5.89;85.42;99508.88;4240394;27;20213;-84
2024/01/30 08:50:04;;;;;;;18.02;10.13;;;;;;;5.98;85.45;99504.28;4257734;27;20212;-84
2024/01/30 08:52:06;;;;;;;15.98;10.80;;;;;;;6.04;86.41;99513.63;4251511;27;20554;-85
2024/01/30 08:54:10;;;;;;;16.73;10.70;;;;;;;6.08;84.60;99514.34;4254779;27;20204;-84
2024/01/30 08:56:16;;;;;;;16.15;11.63;;;;;;;6.17;85.66;99511.50;4237427;27;20298;-84
2024/01/30 08:58:20;;;;;;;17.73;12.05;;;;;;;6.29;86.18;99525.84;4238402;27;20193;-84
2024/01/30 09:00:23;;;;;;;18.80;12.00;;;;;;;6.42;85.58;99517.69;4247494;27;20215;-85
2024/01/30 09:02:26;;;;;;;18.75;11.35;;;;;;;6.51;85.38;99524.31;4234058;27;20201;-84
2024/01/30 09:04:29;;;;;;;18.13;10.82;;;;;;;6.57;84.58;99525.03;4222174;28;20203;-84
2024/01/30 09:06:33;;;;;;;15.48;10.90;;;;;;;6.64;85.07;99527.34;4251641;27;20199;-84
2024/01/30 09:08:36;;;;;;;15.05;10.68;;;;;;;6.71;85.18;99528.03;4233367;27;20203;-84
2024/01/30 09:10:39;;;;;;;15.05;10.70;;;;;;;6.76;85.33;99521.81;4251634;27;20717;-84
2024/01/30 09:12:42;;;;;;;12.23;9.82;;;;;;;6.81;83.65;99529.44;4217134;27;20208;-84
2024/01/30 09:14:47;;;;;;;14.38;10.95;;;;;;;6.85;83.71;99528.47;4251932;27;20598;-84
2024/01/30 09:16:49;;;;;;;15.00;10.05;;;;;;;6.95;84.90;99528.13;4254031;27;20217;-85
2024/01/30 09:18:52;;;;;;;14.85;10.25;;;;;;;7.00;83.89;99534.03;4237627;27;20231;-85
2024/01/30 09:20:55;;;;;;;13.35;9.70;;;;;;;7.04;82.82;99541.66;4235603;27;20623;-85
2024/01/30 09:22:58;;;;;;;15.82;10.73;;;;;;;7.09;83.43;99531.97;4233948;27;20208;-85
2024/01/30 09:25:01;;;;;;;16.95;12.70;;;;;;;7.13;82.77;99538.78;4246508;27;20704;-86
2024/01/30 09:27:05;;;;;;;16.23;11.05;;;;;;;7.16;82.81;99536.09;4250252;27;20202;-84
2024/01/30 09:29:09;;;;;;;13.88;11.40;;;;;;;7.24;83.78;99535.84;4239487;27;20199;-85
2024/01/30 09:31:13;;;;;;;17.30;11.70;;;;;;;7.32;83.28;99536.44;4236079;27;20204;-84
2024/01/30 09:33:17;;;;;;;15.88;11.25;;;;;;;7.42;83.50;99540.44;4237895;27;20199;-84
2024/01/30 09:35:20;;;;;;;13.82;10.50;;;;;;;7.55;84.25;99546.03;4237060;27;20607;-84
2024/01/30 09:37:24;;;;;;;14.55;10.75;;;;;;;7.64;85.72;99544.88;4249981;27;20221;-84
2024/01/30 09:39:28;;;;;;;15.57;11.73;;;;;;;7.73;86.45;99536.78;4237114;27;20782;-84